Norwich, Kansas
Current Conditions -  °F | °C
As of 7:53 PM on Friday 24 Oct 2014 (Local Time) from KICT Reporting Station
Clear Clear  
Wind Chill: 20°   Ceiling: Unl
Heat Index: 20°   Visibility: 10mi
Dew Point: 15°   Wind: 6mph
Humidity: 73%   Direction: 180°S
Pressure: 30.01"   Gusts: NA
Location:  37.46°N, 97.85°W
Report Text: KICT 250053Z 18005KT 10SM CLR 20/15 A3001 RMK AO2 SLP156 T02000150
Loading
Personal Weather Stations






























Interactive Weather Map
Tropical Storm Tracking
New forecast layout! Learn more

10-Day Weather Forecast

Advertisements
Track Severe Weather on mobile